Hlavní strana
METAR-TAF:

METAR-TAF

Letiště :

West Memphis, Arkansas, Spojené státy americké

zeměpisná šířka: 35-08N, zeměpisná délka: 090-14W, výška: 65 m

Aktuální stav počasí

Zpráva byla vytvořena před 36 minutami, v 23:53 UTC
Bezvětří
Teplota 9°C
Vlhkost vzduchu 87%
Tlak 1009 hPa
Viditelnost: 16.1 km
Zataženo ve výšce 6000 ft
slabý déšť

METAR: KAWM 192353Z AUTO 00000KT 10SM -RA OVC060 09/07 A2979 RMK AO2 SLP088 P0002 60011 T00940072 10111 20089 50003

Čas: 19:29 (00:29 UTC)


TAF: chybějící

Stav a předpovědi počasí z více než 4 000 letišť (zprávy METAR a TAF).

Červené a žluté tečky na mapě představují dostupné meteorologické stanice.

Když kurzor umístíte na tečku, zobrazí se název stanice.

Pak kliknutím zobrazíte stav a předpověď počasí.

Chcete-li změnit mapu, kliknutím na zelené tlačítko se znaménkem +mapu přiblížíte, kliknutím na zelené tlačítko se znaménkem – mapu oddálíte a kliknutím na zelené šipky přejdete na sousední mapy.


METAR-TAF: